sensor_id;sensor_type;location;lat;lon;timestamp;pressure;altitude;pressure_sealevel;temperature;humidity
6500;BME280;3283;52.330;9.772;2023-07-02T00:01:59;99817.59;;;16.46;100.00
6500;BME280;3283;52.330;9.772;2023-07-02T00:04:25;99811.41;;;16.46;100.00
6500;BME280;3283;52.330;9.772;2023-07-02T00:06:51;99804.41;;;16.45;100.00
6500;BME280;3283;52.330;9.772;2023-07-02T00:09:16;99810.66;;;16.44;100.00
6500;BME280;3283;52.330;9.772;2023-07-02T00:11:43;99801.97;;;16.40;100.00
6500;BME280;3283;52.330;9.772;2023-07-02T00:14:10;99790.78;;;16.34;100.00
6500;BME280;3283;52.330;9.772;2023-07-02T00:16:37;99795.03;;;16.38;100.00
6500;BME280;3283;52.330;9.772;2023-07-02T00:19:03;99797.59;;;16.39;100.00
6500;BME280;3283;52.330;9.772;2023-07-02T00:21:29;99788.75;;;16.39;100.00
6500;BME280;3283;52.330;9.772;2023-07-02T00:23:59;99791.41;;;16.39;100.00
6500;BME280;3283;52.330;9.772;2023-07-02T00:26:25;99796.50;;;16.43;100.00
6500;BME280;3283;52.330;9.772;2023-07-02T00:28:51;99787.91;;;16.38;100.00
6500;BME280;3283;52.330;9.772;2023-07-02T00:31:16;99798.84;;;16.32;100.00
6500;BME280;3283;52.330;9.772;2023-07-02T00:33:42;99809.66;;;16.28;100.00
6500;BME280;3283;52.330;9.772;2023-07-02T00:36:07;99816.84;;;16.26;100.00
6500;BME280;3283;52.330;9.772;2023-07-02T00:38:38;99814.28;;;16.24;100.00
6500;BME280;3283;52.330;9.772;2023-07-02T00:41:03;99817.16;;;16.19;100.00
6500;BME280;3283;52.330;9.772;2023-07-02T00:43:28;99818.81;;;16.22;100.00
6500;BME280;3283;52.330;9.772;2023-07-02T00:45:55;99810.28;;;16.15;100.00
6500;BME280;3283;52.330;9.772;2023-07-02T00:48:20;99820.91;;;16.15;100.00
6500;BME280;3283;52.330;9.772;2023-07-02T00:50:46;99814.28;;;16.24;100.00
6500;BME280;3283;52.330;9.772;2023-07-02T00:53:11;99820.44;;;16.25;100.00
6500;BME280;3283;52.330;9.772;2023-07-02T00:55:38;99814.44;;;16.21;100.00
6500;BME280;3283;52.330;9.772;2023-07-02T00:58:03;99813.72;;;16.17;100.00
6500;BME280;3283;52.330;9.772;2023-07-02T01:00:28;99810.50;;;16.11;100.00
6500;BME280;3283;52.330;9.772;2023-07-02T01:02:55;99810.78;;;16.05;100.00
6500;BME280;3283;52.330;9.772;2023-07-02T01:05:28;99808.59;;;15.96;100.00
6500;BME280;3283;52.330;9.772;2023-07-02T01:08:02;99807.31;;;15.85;100.00
6500;BME280;3283;52.330;9.772;2023-07-02T01:10:27;99814.63;;;15.80;100.00
6500;BME280;3283;52.330;9.772;2023-07-02T01:12:54;99815.78;;;15.75;100.00
6500;BME280;3283;52.330;9.772;2023-07-02T01:15:20;99808.09;;;15.69;100.00
6500;BME280;3283;52.330;9.772;2023-07-02T01:17:46;99805.84;;;15.59;100.00
6500;BME280;3283;52.330;9.772;2023-07-02T01:20:14;99804.44;;;15.52;100.00
6500;BME280;3283;52.330;9.772;2023-07-02T01:22:40;99813.16;;;15.54;100.00
6500;BME280;3283;52.330;9.772;2023-07-02T01:25:05;99793.91;;;15.51;100.00
6500;BME280;3283;52.330;9.772;2023-07-02T01:27:31;99794.78;;;15.50;100.00
6500;BME280;3283;52.330;9.772;2023-07-02T01:29:57;99801.97;;;15.48;100.00
6500;BME280;3283;52.330;9.772;2023-07-02T01:32:22;99800.53;;;15.41;100.00
6500;BME280;3283;52.330;9.772;2023-07-02T01:34:48;99803.34;;;15.37;100.00
6500;BME280;3283;52.330;9.772;2023-07-02T01:37:17;99808.06;;;15.31;100.00
6500;BME280;3283;52.330;9.772;2023-07-02T01:39:43;99810.91;;;15.26;100.00
6500;BME280;3283;52.330;9.772;2023-07-02T01:42:10;99798.44;;;15.28;100.00
6500;BME280;3283;52.330;9.772;2023-07-02T01:44:37;99815.28;;;15.27;100.00
6500;BME280;3283;52.330;9.772;2023-07-02T01:47:02;99813.28;;;15.32;100.00
6500;BME280;3283;52.330;9.772;2023-07-02T01:49:28;99825.69;;;15.32;100.00
6500;BME280;3283;52.330;9.772;2023-07-02T01:51:55;99819.63;;;15.28;100.00
6500;BME280;3283;52.330;9.772;2023-07-02T01:54:22;99822.03;;;15.34;100.00
6500;BME280;3283;52.330;9.772;2023-07-02T01:56:47;99825.59;;;15.33;100.00
6500;BME280;3283;52.330;9.772;2023-07-02T01:59:13;99822.75;;;15.38;100.00
6500;BME280;3283;52.330;9.772;2023-07-02T02:01:38;99819.75;;;15.46;100.00
6500;BME280;3283;52.330;9.772;2023-07-02T02:04:07;99831.72;;;15.54;100.00
6500;BME280;3283;52.330;9.772;2023-07-02T02:06:33;99821.31;;;15.50;100.00
6500;BME280;3283;52.330;9.772;2023-07-02T02:08:59;99823.69;;;15.56;100.00
6500;BME280;3283;52.330;9.772;2023-07-02T02:11:25;99830.00;;;15.53;100.00
6500;BME280;3283;52.330;9.772;2023-07-02T02:13:50;99817.59;;;15.54;100.00
6500;BME280;3283;52.330;9.772;2023-07-02T02:16:16;99821.03;;;15.56;100.00
6500;BME280;3283;52.330;9.772;2023-07-02T02:18:41;99827.06;;;15.59;100.00
6500;BME280;3283;52.330;9.772;2023-07-02T02:21:07;99810.31;;;15.59;100.00
6500;BME280;3283;52.330;9.772;2023-07-02T02:23:32;99826.09;;;15.62;100.00
6500;BME280;3283;52.330;9.772;2023-07-02T02:25:57;99827.94;;;15.60;100.00
6500;BME280;3283;52.330;9.772;2023-07-02T02:28:23;99824.22;;;15.64;100.00
6500;BME280;3283;52.330;9.772;2023-07-02T02:30:48;99831.28;;;15.65;100.00
6500;BME280;3283;52.330;9.772;2023-07-02T02:33:13;99829.31;;;15.69;100.00
6500;BME280;3283;52.330;9.772;2023-07-02T02:35:39;99827.53;;;15.69;100.00
6500;BME280;3283;52.330;9.772;2023-07-02T02:38:04;99831.69;;;15.75;100.00
6500;BME280;3283;52.330;9.772;2023-07-02T02:40:30;99825.25;;;15.80;100.00
6500;BME280;3283;52.330;9.772;2023-07-02T02:42:55;99831.19;;;15.85;100.00
6500;BME280;3283;52.330;9.772;2023-07-02T02:45:21;99823.38;;;15.82;100.00
6500;BME280;3283;52.330;9.772;2023-07-02T02:47:46;99829.41;;;15.86;100.00
6500;BME280;3283;52.330;9.772;2023-07-02T02:50:12;99827.09;;;15.78;100.00
6500;BME280;3283;52.330;9.772;2023-07-02T02:52:38;99825.25;;;15.80;100.00
6500;BME280;3283;52.330;9.772;2023-07-02T02:55:05;99825.75;;;15.88;100.00
6500;BME280;3283;52.330;9.772;2023-07-02T02:57:31;99825.81;;;15.87;100.00
6500;BME280;3283;52.330;9.772;2023-07-02T02:59:57;99831.53;;;15.97;100.00
6500;BME280;3283;52.330;9.772;2023-07-02T03:02:22;99818.06;;;16.01;100.00
6500;BME280;3283;52.330;9.772;2023-07-02T03:04:48;99824.16;;;16.03;100.00
6500;BME280;3283;52.330;9.772;2023-07-02T03:07:15;99822.19;;;16.07;100.00
6500;BME280;3283;52.330;9.772;2023-07-02T03:09:40;99814.19;;;16.08;100.00
6500;BME280;3283;52.330;9.772;2023-07-02T03:12:06;99815.03;;;16.09;100.00
6500;BME280;3283;52.330;9.772;2023-07-02T03:14:31;99813.25;;;16.09;100.00
6500;BME280;3283;52.330;9.772;2023-07-02T03:16:56;99813.88;;;16.14;100.00
6500;BME280;3283;52.330;9.772;2023-07-02T03:19:22;99815.97;;;16.08;100.00
6500;BME280;3283;52.330;9.772;2023-07-02T03:21:47;99819.13;;;16.16;100.00
6500;BME280;3283;52.330;9.772;2023-07-02T03:24:12;99818.19;;;16.17;100.00
6500;BME280;3283;52.330;9.772;2023-07-02T03:26:39;99819.75;;;16.21;100.00
6500;BME280;3283;52.330;9.772;2023-07-02T03:29:05;99822.41;;;16.21;100.00
6500;BME280;3283;52.330;9.772;2023-07-02T03:31:31;99823.28;;;16.22;100.00
6500;BME280;3283;52.330;9.772;2023-07-02T03:33:56;99816.16;;;16.22;100.00
6500;BME280;3283;52.330;9.772;2023-07-02T03:36:21;99823.09;;;16.25;100.00
6500;BME280;3283;52.330;9.772;2023-07-02T03:38:47;99814.22;;;16.26;100.00
6500;BME280;3283;52.330;9.772;2023-07-02T03:41:12;99825.69;;;16.26;100.00
6500;BME280;3283;52.330;9.772;2023-07-02T03:43:38;99816.66;;;16.30;100.00
6500;BME280;3283;52.330;9.772;2023-07-02T03:46:03;99814.00;;;16.30;100.00
6500;BME280;3283;52.330;9.772;2023-07-02T03:48:29;99814.69;;;16.34;100.00
6500;BME280;3283;52.330;9.772;2023-07-02T03:50:54;99815.91;;;16.27;100.00
6500;BME280;3283;52.330;9.772;2023-07-02T03:53:19;99822.16;;;16.26;100.00
6500;BME280;3283;52.330;9.772;2023-07-02T03:55:45;99831.28;;;16.20;100.00
6500;BME280;3283;52.330;9.772;2023-07-02T03:58:10;99834.09;;;16.17;100.00
6500;BME280;3283;52.330;9.772;2023-07-02T04:00:35;99833.94;;;16.20;100.00
6500;BME280;3283;52.330;9.772;2023-07-02T04:03:01;99830.16;;;16.07;100.00
6500;BME280;3283;52.330;9.772;2023-07-02T04:05:27;99850.53;;;16.06;100.00
6500;BME280;3283;52.330;9.772;2023-07-02T04:07:52;99872.91;;;15.63;100.00
6500;BME280;3283;52.330;9.772;2023-07-02T04:10:17;99882.63;;;15.03;100.00
6500;BME280;3283;52.330;9.772;2023-07-02T04:12:43;99890.22;;;14.90;100.00
6500;BME280;3283;52.330;9.772;2023-07-02T04:15:09;99888.38;;;14.92;100.00
6500;BME280;3283;52.330;9.772;2023-07-02T04:17:35;99890.22;;;14.48;100.00
6500;BME280;3283;52.330;9.772;2023-07-02T04:20:02;99888.16;;;14.33;100.00
6500;BME280;3283;52.330;9.772;2023-07-02T04:22:29;99889.28;;;14.27;100.00
6500;BME280;3283;52.330;9.772;2023-07-02T04:24:54;99886.00;;;14.20;100.00
6500;BME280;3283;52.330;9.772;2023-07-02T04:27:19;99894.06;;;14.17;100.00
6500;BME280;3283;52.330;9.772;2023-07-02T04:29:45;99898.13;;;14.26;100.00
6500;BME280;3283;52.330;9.772;2023-07-02T04:32:10;99909.56;;;14.26;100.00
6500;BME280;3283;52.330;9.772;2023-07-02T04:34:35;99896.28;;;14.28;100.00
6500;BME280;3283;52.330;9.772;2023-07-02T04:37:05;99899.44;;;14.38;100.00
6500;BME280;3283;52.330;9.772;2023-07-02T04:39:31;99905.38;;;14.43;100.00
6500;BME280;3283;52.330;9.772;2023-07-02T04:41:56;99912.19;;;14.50;100.00
6500;BME280;3283;52.330;9.772;2023-07-02T04:44:22;99923.16;;;14.63;100.00
6500;BME280;3283;52.330;9.772;2023-07-02T04:46:58;99916.88;;;14.65;100.00
6500;BME280;3283;52.330;9.772;2023-07-02T04:49:23;99922.31;;;14.62;100.00
6500;BME280;3283;52.330;9.772;2023-07-02T04:51:49;99920.69;;;14.58;100.00
6500;BME280;3283;52.330;9.772;2023-07-02T04:54:14;99927.41;;;14.67;100.00
6500;BME280;3283;52.330;9.772;2023-07-02T04:56:39;99934.13;;;14.75;100.00
6500;BME280;3283;52.330;9.772;2023-07-02T04:59:05;99925.84;;;14.83;100.00
6500;BME280;3283;52.330;9.772;2023-07-02T05:01:30;99928.03;;;14.94;100.00
6500;BME280;3283;52.330;9.772;2023-07-02T05:03:55;99941.09;;;14.98;100.00
6500;BME280;3283;52.330;9.772;2023-07-02T05:06:21;99936.41;;;15.05;100.00
6500;BME280;3283;52.330;9.772;2023-07-02T05:08:46;99942.91;;;14.98;100.00
6500;BME280;3283;52.330;9.772;2023-07-02T05:11:11;99942.22;;;14.93;100.00
6500;BME280;3283;52.330;9.772;2023-07-02T05:13:37;99939.34;;;14.77;100.00
6500;BME280;3283;52.330;9.772;2023-07-02T05:16:02;99945.22;;;14.63;100.00
6500;BME280;3283;52.330;9.772;2023-07-02T05:18:27;99940.28;;;14.54;100.00
6500;BME280;3283;52.330;9.772;2023-07-02T05:20:53;99941.63;;;14.64;100.00
6500;BME280;3283;52.330;9.772;2023-07-02T05:23:18;99938.19;;;14.62;100.00
6500;BME280;3283;52.330;9.772;2023-07-02T05:25:44;99943.94;;;14.73;100.00
6500;BME280;3283;52.330;9.772;2023-07-02T05:28:11;99939.41;;;14.75;100.00
6500;BME280;3283;52.330;9.772;2023-07-02T05:30:36;99933.66;;;14.86;100.00
6500;BME280;3283;52.330;9.772;2023-07-02T05:33:01;99933.41;;;14.92;100.00
6500;BME280;3283;52.330;9.772;2023-07-02T05:35:27;99922.38;;;15.03;100.00
6500;BME280;3283;52.330;9.772;2023-07-02T05:37:52;99915.66;;;15.15;100.00
6500;BME280;3283;52.330;9.772;2023-07-02T05:40:17;99911.38;;;15.32;100.00
6500;BME280;3283;52.330;9.772;2023-07-02T05:42:43;99915.88;;;15.51;100.00
6500;BME280;3283;52.330;9.772;2023-07-02T05:45:08;99909.06;;;15.45;100.00
6500;BME280;3283;52.330;9.772;2023-07-02T05:47:34;99918.84;;;15.63;100.00
6500;BME280;3283;52.330;9.772;2023-07-02T05:49:59;99912.50;;;15.47;100.00
6500;BME280;3283;52.330;9.772;2023-07-02T05:52:24;99915.22;;;15.46;100.00
6500;BME280;3283;52.330;9.772;2023-07-02T05:54:50;99913.88;;;15.56;100.00
6500;BME280;3283;52.330;9.772;2023-07-02T05:57:15;99919.44;;;15.70;100.00
6500;BME280;3283;52.330;9.772;2023-07-02T05:59:40;99911.94;;;15.80;100.00
6500;BME280;3283;52.330;9.772;2023-07-02T06:02:07;99906.22;;;16.08;100.00
6500;BME280;3283;52.330;9.772;2023-07-02T06:04:32;99905.34;;;16.26;100.00
6500;BME280;3283;52.330;9.772;2023-07-02T06:06:58;99900.09;;;16.43;100.00
6500;BME280;3283;52.330;9.772;2023-07-02T06:09:23;99904.00;;;16.54;100.00
6500;BME280;3283;52.330;9.772;2023-07-02T06:11:48;99898.41;;;16.60;100.00
6500;BME280;3283;52.330;9.772;2023-07-02T06:14:13;99894.03;;;16.78;100.00
6500;BME280;3283;52.330;9.772;2023-07-02T06:16:39;99894.41;;;16.87;100.00
6500;BME280;3283;52.330;9.772;2023-07-02T06:19:04;99897.06;;;17.05;100.00
6500;BME280;3283;52.330;9.772;2023-07-02T06:21:30;99897.38;;;17.16;100.00
6500;BME280;3283;52.330;9.772;2023-07-02T06:23:56;99893.47;;;17.23;100.00
6500;BME280;3283;52.330;9.772;2023-07-02T06:26:23;99899.25;;;17.14;100.00
6500;BME280;3283;52.330;9.772;2023-07-02T06:28:48;99895.81;;;16.94;100.00
6500;BME280;3283;52.330;9.772;2023-07-02T06:31:13;99896.44;;;17.17;100.00
6500;BME280;3283;52.330;9.772;2023-07-02T06:33:39;99898.00;;;17.03;100.00
6500;BME280;3283;52.330;9.772;2023-07-02T06:36:05;99891.28;;;17.14;100.00
6500;BME280;3283;52.330;9.772;2023-07-02T06:38:31;99890.09;;;17.19;100.00
6500;BME280;3283;52.330;9.772;2023-07-02T06:40:56;99892.81;;;17.35;100.00
6500;BME280;3283;52.330;9.772;2023-07-02T06:43:22;99901.22;;;17.27;100.00
6500;BME280;3283;52.330;9.772;2023-07-02T06:45:47;99903.78;;;17.29;100.00
6500;BME280;3283;52.330;9.772;2023-07-02T06:48:13;99889.53;;;17.30;100.00
6500;BME280;3283;52.330;9.772;2023-07-02T06:50:43;99904.47;;;17.33;100.00
6500;BME280;3283;52.330;9.772;2023-07-02T06:53:09;99903.22;;;17.40;100.00
6500;BME280;3283;52.330;9.772;2023-07-02T06:55:34;99900.63;;;17.55;100.00
6500;BME280;3283;52.330;9.772;2023-07-02T06:58:00;99910.75;;;17.82;100.00
6500;BME280;3283;52.330;9.772;2023-07-02T07:00:25;99904.84;;;17.93;100.00
6500;BME280;3283;52.330;9.772;2023-07-02T07:02:50;99909.72;;;17.67;100.00
6500;BME280;3283;52.330;9.772;2023-07-02T07:05:16;99906.22;;;17.84;100.00
6500;BME280;3283;52.330;9.772;2023-07-02T07:07:41;99911.31;;;18.20;100.00
6500;BME280;3283;52.330;9.772;2023-07-02T07:10:07;99905.09;;;18.04;100.00
6500;BME280;3283;52.330;9.772;2023-07-02T07:12:32;99912.31;;;18.02;100.00
6500;BME280;3283;52.330;9.772;2023-07-02T07:14:58;99913.22;;;18.34;100.00
6500;BME280;3283;52.330;9.772;2023-07-02T07:17:23;99919.28;;;18.67;100.00
6500;BME280;3283;52.330;9.772;2023-07-02T07:19:49;99923.53;;;18.40;100.00
6500;BME280;3283;52.330;9.772;2023-07-02T07:22:14;99925.91;;;17.97;100.00
6500;BME280;3283;52.330;9.772;2023-07-02T07:24:41;99934.16;;;18.08;100.00
6500;BME280;3283;52.330;9.772;2023-07-02T07:27:07;99925.91;;;17.97;100.00
6500;BME280;3283;52.330;9.772;2023-07-02T07:29:32;99920.41;;;18.16;100.00
6500;BME280;3283;52.330;9.772;2023-07-02T07:31:58;99937.53;;;18.12;100.00
6500;BME280;3283;52.330;9.772;2023-07-02T07:34:23;99930.38;;;18.44;100.00
6500;BME280;3283;52.330;9.772;2023-07-02T07:36:48;99947.94;;;18.48;100.00
6500;BME280;3283;52.330;9.772;2023-07-02T07:39:14;99939.66;;;18.37;100.00
6500;BME280;3283;52.330;9.772;2023-07-02T16:37:20;100137.69;;;24.28;50.51
6500;BME280;3283;52.330;9.772;2023-07-02T16:39:46;100122.63;;;24.83;50.21
6500;BME280;3283;52.330;9.772;2023-07-02T16:42:11;100135.81;;;25.19;48.33
6500;BME280;3283;52.330;9.772;2023-07-02T16:44:38;100142.22;;;23.44;51.49
6500;BME280;3283;52.330;9.772;2023-07-02T16:47:04;100135.63;;;22.62;54.98
6500;BME280;3283;52.330;9.772;2023-07-02T16:49:30;100132.47;;;22.81;55.01
6500;BME280;3283;52.330;9.772;2023-07-02T16:51:55;100137.53;;;24.53;51.36
6500;BME280;3283;52.330;9.772;2023-07-02T16:54:23;100144.91;;;26.36;48.38
6500;BME280;3283;52.330;9.772;2023-07-02T16:56:52;100134.50;;;26.42;46.20
6500;BME280;3283;52.330;9.772;2023-07-02T16:59:21;100132.38;;;26.04;46.98
6500;BME280;3283;52.330;9.772;2023-07-02T17:01:55;100127.81;;;25.40;47.43
6500;BME280;3283;52.330;9.772;2023-07-02T17:04:22;100139.00;;;24.91;49.31
6500;BME280;3283;52.330;9.772;2023-07-02T17:06:54;100134.97;;;24.17;50.71
6500;BME280;3283;52.330;9.772;2023-07-02T17:11:52;100141.44;;;24.14;50.32
6500;BME280;3283;52.330;9.772;2023-07-02T17:14:22;100135.69;;;23.60;51.02
6500;BME280;3283;52.330;9.772;2023-07-02T17:16:54;100140.72;;;24.12;50.08
6500;BME280;3283;52.330;9.772;2023-07-02T17:19:25;100137.91;;;24.60;50.34
6500;BME280;3283;52.330;9.772;2023-07-02T17:21:51;100130.19;;;24.78;50.38
6500;BME280;3283;52.330;9.772;2023-07-02T17:24:18;100145.00;;;24.15;50.38
6500;BME280;3283;52.330;9.772;2023-07-02T17:26:45;100140.66;;;22.80;53.86
6500;BME280;3283;52.330;9.772;2023-07-02T17:29:11;100135.28;;;22.67;54.55
6500;BME280;3283;52.330;9.772;2023-07-02T17:31:36;100140.00;;;22.25;55.53
6500;BME280;3283;52.330;9.772;2023-07-02T17:34:02;100146.53;;;21.81;57.35
6500;BME280;3283;52.330;9.772;2023-07-02T17:36:27;100137.88;;;21.51;58.94
6500;BME280;3283;52.330;9.772;2023-07-02T17:38:52;100142.03;;;21.82;58.11
6500;BME280;3283;52.330;9.772;2023-07-02T17:41:18;100144.81;;;21.80;59.13
6500;BME280;3283;52.330;9.772;2023-07-02T17:43:43;100145.69;;;21.54;59.25
6500;BME280;3283;52.330;9.772;2023-07-02T17:46:08;100146.03;;;21.62;59.96
